Time;durP1;ratioP1;P1;durP2;ratioP2;P2;SDS_P1;SDS_P2;PMS_P1;PMS_P2;Temp;Humidity;BMP_temperature;BMP_pressure;BME280_temperature;BME280_humidity;BME280_pressure;Samples;Min_cycle;Max_cycle;Signal;HPM_P1;HPM_P2
2023/07/25 00:03:03;;;;;;;0.70;0.50;;;;;;;;;;20866734;28;20227;-70
2023/07/25 00:13:05;;;;;;;0.87;0.50;;;;;;;;;;20850240;28;20283;-70
2023/07/25 00:23:07;;;;;;;0.90;0.60;;;;;;;;;;20855702;28;20230;-70
2023/07/25 00:33:08;;;;;;;0.67;0.40;;;;;;;;;;20850294;28;20233;-70
2023/07/25 00:43:10;;;;;;;0.52;0.40;;;;;;;;;;20822684;28;20225;-70
2023/07/25 00:53:13;;;;;;;0.67;0.50;;;;;;;;;;20838535;28;20648;-70
2023/07/25 01:03:15;;;;;;;0.70;0.47;;;;;;;;;;20880146;28;20820;-70
2023/07/25 01:13:16;;;;;;;1.53;0.40;;;;;;;;;;20868324;28;20576;-71
2023/07/25 01:23:19;;;;;;;3.10;0.83;;;;;;;;;;20845557;28;20228;-70
2023/07/25 01:33:21;;;;;;;0.83;0.33;;;;;;;;;;20955231;22;20303;-86
2023/07/25 01:43:23;;;;;;;0.97;0.50;;;;;;;;;;20938300;28;20294;-84
2023/07/25 01:53:25;;;;;;;0.90;0.60;;;;;;;;;;20949576;28;20229;-85
2023/07/25 02:03:28;;;;;;;1.03;0.50;;;;;;;;;;20954226;28;20273;-82
2023/07/25 02:13:30;;;;;;;0.90;0.60;;;;;;;;;;20903536;28;20241;-84
2023/07/25 02:23:32;;;;;;;1.17;0.60;;;;;;;;;;20967492;28;20240;-84
2023/07/25 02:33:35;;;;;;;0.87;0.50;;;;;;;;;;20883944;28;20244;-84
2023/07/25 02:43:36;;;;;;;0.83;0.60;;;;;;;;;;20960804;28;20279;-84
2023/07/25 02:53:38;;;;;;;2.93;0.50;;;;;;;;;;20927039;28;20291;-83
2023/07/25 03:03:40;;;;;;;1.00;0.43;;;;;;;;;;20986808;28;20589;-84
2023/07/25 03:13:42;;;;;;;1.03;0.50;;;;;;;;;;20965623;28;20575;-84
2023/07/25 03:23:43;;;;;;;0.70;0.40;;;;;;;;;;20923309;28;20276;-81
2023/07/25 03:33:45;;;;;;;0.87;0.60;;;;;;;;;;20893754;28;20318;-81
2023/07/25 03:43:47;;;;;;;0.57;0.40;;;;;;;;;;20938940;28;20787;-82
2023/07/25 03:53:48;;;;;;;1.50;0.60;;;;;;;;;;20963818;28;20781;-80
2023/07/25 04:03:50;;;;;;;0.63;0.40;;;;;;;;;;20896069;28;20589;-82
2023/07/25 04:13:52;;;;;;;0.63;0.40;;;;;;;;;;20929248;28;20235;-81
2023/07/25 04:23:54;;;;;;;2.63;0.50;;;;;;;;;;20891627;28;20646;-80
2023/07/25 04:33:55;;;;;;;2.20;0.40;;;;;;;;;;20954309;28;20225;-79
2023/07/25 04:43:57;;;;;;;0.80;0.40;;;;;;;;;;20927868;28;20630;-79
2023/07/25 04:54:20;;;;;;;0.93;0.60;;;20.40;99.90;;;;;;20950170;28;20232;-81
2023/07/25 05:04:22;;;;;;;1.00;0.77;;;;;;;;;;20915445;28;20555;-81
2023/07/25 05:14:23;;;;;;;0.80;0.60;;;;;;;;;;20952021;28;20694;-83
2023/07/25 05:24:25;;;;;;;0.93;0.50;;;;;;;;;;20935788;28;20236;-81
2023/07/25 05:34:27;;;;;;;1.57;0.60;;;;;;;;;;20932433;28;20297;-78
2023/07/25 05:44:29;;;;;;;1.23;0.40;;;;;;;;;;20932240;28;20220;-80
2023/07/25 05:54:31;;;;;;;0.90;0.50;;;;;;;;;;20956081;28;20235;-81
2023/07/25 06:04:33;;;;;;;1.10;0.50;;;;;;;;;;20935609;28;20220;-79
2023/07/25 06:14:34;;;;;;;0.70;0.60;;;;;;;;;;20940450;28;20236;-80
2023/07/25 06:24:36;;;;;;;1.17;0.70;;;;;;;;;;20950822;28;20286;-79
2023/07/25 06:34:38;;;;;;;0.80;0.50;;;;;;;;;;20986667;28;20230;-80
2023/07/25 06:44:39;;;;;;;1.20;0.60;;;;;;;;;;20904500;28;20233;-79
2023/07/25 06:54:44;;;;;;;0.73;0.50;;;19.80;99.90;;;;;;20921057;28;20239;-79
2023/07/25 07:04:46;;;;;;;1.00;0.70;;;;;;;;;;20924939;28;20276;-80
2023/07/25 07:14:47;;;;;;;0.70;0.57;;;;;;;;;;20955108;28;20284;-81
2023/07/25 07:24:49;;;;;;;2.30;0.80;;;;;;;;;;20956381;28;20273;-80
2023/07/25 07:34:51;;;;;;;0.90;0.50;;;;;;;;;;20910687;28;20563;-80
2023/07/25 07:44:53;;;;;;;0.80;0.57;;;;;;;;;;20923978;28;20569;-81
2023/07/25 07:54:55;;;;;;;1.60;0.50;;;;;;;;;;20900639;28;20232;-82
2023/07/25 08:04:57;;;;;;;0.80;0.40;;;;;;;;;;20913775;28;20218;-81
2023/07/25 08:14:59;;;;;;;2.00;0.70;;;;;;;;;;20992772;28;20244;-79
2023/07/25 08:25:01;;;;;;;0.60;0.47;;;;;;;;;;20950437;28;20232;-79
2023/07/25 08:35:03;;;;;;;0.60;0.47;;;;;;;;;;20946677;28;20232;-81
2023/07/25 08:45:06;;;;;;;0.40;0.30;;;;;;;;;;20927784;28;20224;-81
2023/07/25 08:55:08;;;;;;;1.27;0.40;;;;;;;;;;20926821;28;20258;-81
2023/07/25 09:05:10;;;;;;;1.23;0.40;;;;;;;;;;20931309;28;20216;-79
2023/07/25 09:15:12;;;;;;;0.20;0.20;;;;;;;;;;20960433;28;20236;-80
2023/07/25 09:25:14;;;;;;;2.97;0.30;;;;;;;;;;20921408;28;20648;-81
2023/07/25 09:35:16;;;;;;;0.40;0.30;;;;;;;;;;20936612;28;20239;-79
2023/07/25 09:45:19;;;;;;;0.40;0.40;;;;;;;;;;20949123;28;20259;-78
2023/07/25 09:55:21;;;;;;;0.30;0.27;;;;;;;;;;20976529;28;20254;-79
2023/07/25 10:05:23;;;;;;;0.40;0.40;;;;;;;;;;20964381;28;20227;-80
2023/07/25 10:15:25;;;;;;;0.30;0.30;;;;;;;;;;20936429;28;20281;-79
2023/07/25 10:25:28;;;;;;;0.40;0.37;;;;;;;;;;20956659;28;20228;-80
2023/07/25 10:35:52;;;;;;;0.50;0.30;;;;;;;;;;20969859;28;20775;-80
2023/07/25 10:45:55;;;;;;;0.50;0.40;;;;;;;;;;20945137;28;20215;-80
2023/07/25 10:56:07;;;;;;;0.40;0.37;;;;;;;;;;20931904;28;20247;-81
2023/07/25 11:06:08;;;;;;;0.77;0.50;;;;;;;;;;20959283;28;20219;-79
2023/07/25 11:16:13;;;;;;;0.80;0.40;;;;;;;;;;20937022;28;20220;-80
2023/07/25 11:26:16;;;;;;;0.50;0.30;;;;;;;;;;20937608;28;20245;-80
2023/07/25 11:36:17;;;;;;;0.35;0.30;;;;;;;;;;20936950;28;20703;-80
2023/07/25 11:46:20;;;;;;;0.70;0.40;;;;;;;;;;20939086;28;20225;-81
2023/07/25 11:56:22;;;;;;;0.50;0.30;;;;;;;;;;20919036;28;20232;-81
2023/07/25 12:06:30;;;;;;;0.87;0.50;;;;;;;;;;20886540;28;20228;-82
2023/07/25 12:16:36;;;;;;;0.57;0.43;;;21.70;99.90;;;;;;20943098;28;20592;-82
2023/07/25 12:26:54;;;;;;;0.77;0.50;;;21.50;99.90;;;;;;20927363;28;20260;-83
2023/07/25 12:36:56;;;;;;;0.73;0.50;;;;;;;;;;20906467;28;20300;-82
2023/07/25 12:46:57;;;;;;;1.05;0.60;;;;;;;;;;20961821;28;20305;-80
2023/07/25 12:57:00;;;;;;;0.53;0.40;;;;;;;;;;20961412;28;20226;-80
2023/07/25 13:07:01;;;;;;;0.77;0.60;;;;;;;;;;20968904;28;20296;-80
2023/07/25 13:17:08;;;;;;;1.47;0.70;;;;;;;;;;20935614;28;20760;-81
2023/07/25 13:27:11;;;;;;;0.70;0.40;;;;;;;;;;20929730;28;20329;-82
2023/07/25 13:37:13;;;;;;;1.27;0.60;;;;;;;;;;20939418;28;20269;-82
2023/07/25 13:47:14;;;;;;;0.63;0.50;;;;;;;;;;20945557;28;20262;-83
2023/07/25 13:57:16;;;;;;;1.10;0.50;;;;;;;;;;20951679;28;20613;-82
2023/07/25 14:07:18;;;;;;;1.27;0.60;;;;;;;;;;20935606;28;20303;-82
2023/07/25 14:17:19;;;;;;;3.90;0.50;;;;;;;;;;20971433;28;20213;-81
2023/07/25 14:27:23;;;;;;;0.90;0.60;;;;;;;;;;20983983;28;20713;-81
2023/07/25 14:37:24;;;;;;;1.03;0.70;;;;;;;;;;20937894;28;20227;-82
2023/07/25 14:47:26;;;;;;;0.87;0.70;;;;;;;;;;20904457;28;20229;-81
2023/07/25 14:57:30;;;;;;;1.13;0.70;;;;;;;;;;20947273;28;20247;-80
2023/07/25 15:07:32;;;;;;;2.57;0.87;;;;;;;;;;20922526;28;20223;-81
2023/07/25 15:17:35;;;;;;;1.13;0.70;;;;;;;;;;20959380;28;20269;-81
2023/07/25 15:27:36;;;;;;;1.60;0.97;;;;;;;;;;20932755;28;20210;-81
2023/07/25 15:37:38;;;;;;;1.43;0.80;;;;;;;;;;20932433;28;20639;-82
2023/07/25 15:47:40;;;;;;;2.23;0.77;;;;;;;;;;20930895;28;20220;-80
2023/07/25 15:57:42;;;;;;;1.30;0.90;;;;;;;;;;20912844;28;20289;-81
2023/07/25 16:07:43;;;;;;;1.27;0.83;;;;;;;;;;20921234;28;20704;-81
2023/07/25 16:17:45;;;;;;;0.93;0.70;;;;;;;;;;20953229;28;20236;-81
2023/07/25 16:27:48;;;;;;;1.53;0.90;;;;;;;;;;20944089;28;20607;-82
2023/07/25 16:37:50;;;;;;;1.50;0.93;;;;;;;;;;20926571;28;20249;-82
2023/07/25 16:47:52;;;;;;;1.47;0.90;;;;;;;;;;20882077;28;20250;-82
2023/07/25 16:57:55;;;;;;;1.40;0.90;;;;;;;;;;20928201;28;20640;-81
2023/07/25 17:07:57;;;;;;;1.00;0.70;;;;;;;;;;20922253;28;20220;-82
2023/07/25 17:18:00;;;;;;;1.50;0.80;;;;;;;;;;20939186;28;20324;-78
2023/07/25 17:28:02;;;;;;;1.37;0.50;;;;;;;;;;20953955;28;20227;-80
2023/07/25 17:38:08;;;;;;;1.57;0.80;;;;;;;;;;20986766;28;20243;-81
2023/07/25 17:59:32;;;;;;;1.57;0.90;;;;;;;;;;20977532;28;20610;-79
2023/07/25 18:09:34;;;;;;;1.70;0.93;;;;;;;;;;20963897;28;20231;-81
2023/07/25 18:19:36;;;;;;;1.80;1.53;;;;;;;;;;20887347;28;20239;-80
2023/07/25 18:29:38;;;;;;;2.00;1.20;;;;;;;;;;20951144;28;20231;-82
2023/07/25 18:39:40;;;;;;;1.57;1.20;;;;;;;;;;20963097;28;20290;-79
2023/07/25 18:49:41;;;;;;;1.93;1.20;;;;;;;;;;20930329;28;20215;-80
2023/07/25 18:59:43;;;;;;;3.43;1.53;;;;;;;;;;20911718;28;20235;-80
2023/07/25 19:09:46;;;;;;;2.10;1.33;;;;;;;;;;20936482;28;20242;-81
2023/07/25 19:19:48;;;;;;;2.13;1.30;;;;;;;;;;20918152;28;20281;-79
2023/07/25 19:29:50;;;;;;;1.83;1.13;;;;;;;;;;20899567;28;20620;-80
2023/07/25 19:39:53;;;;;;;2.00;1.07;;;;;;;;;;20930336;28;20235;-80
2023/07/25 19:49:57;;;;;;;2.87;1.20;;;;;;;;;;20951828;28;20277;-83
2023/07/25 20:00:01;;;;;;;2.23;1.23;;;;;;;;;;20933325;28;20238;-80
2023/07/25 20:10:04;;;;;;;1.77;1.07;;;;;;;;;;20927654;28;20573;-80
2023/07/25 20:20:07;;;;;;;2.37;1.03;;;;;;;;;;20939512;28;20233;-80
2023/07/25 20:30:09;;;;;;;2.43;1.10;;;;;;;;;;20921788;28;20288;-83
2023/07/25 20:40:11;;;;;;;1.60;1.20;;;;;;;;;;20907008;28;20716;-81
2023/07/25 20:50:14;;;;;;;2.13;1.20;;;;;;;;;;20940769;28;20283;-80
2023/07/25 21:00:16;;;;;;;2.77;1.57;;;;;;;;;;20974833;28;20234;-81
2023/07/25 21:10:18;;;;;;;2.27;1.50;;;;;;;;;;20926235;28;20229;-81
2023/07/25 21:20:20;;;;;;;1.97;1.43;;;;;;;;;;20946038;28;20230;-80
2023/07/25 21:30:21;;;;;;;2.60;1.60;;;;;;;;;;20911469;28;20231;-82
2023/07/25 21:40:23;;;;;;;2.10;1.30;;;;;;;;;;20888903;28;20382;-81
2023/07/25 21:50:25;;;;;;;2.37;1.53;;;;;;;;;;20922337;28;20238;-83
2023/07/25 22:00:27;;;;;;;2.40;1.67;;;;;;;;;;20918079;28;20396;-82
2023/07/25 22:10:29;;;;;;;3.30;1.43;;;;;;;;;;20909902;28;20275;-82
2023/07/25 22:20:30;;;;;;;2.20;1.20;;;;;;;;;;20943656;28;20236;-82
2023/07/25 22:30:33;;;;;;;2.30;1.47;;;18.20;99.90;;;;;;20921756;28;20611;-80
2023/07/25 22:40:35;;;;;;;4.00;1.50;;;;;;;;;;20896367;28;20245;-82
2023/07/25 22:50:37;;;;;;;2.60;1.40;;;;;;;;;;20907650;28;20287;-80
2023/07/25 23:00:39;;;;;;;2.30;1.60;;;;;;;;;;20935167;28;20585;-81
2023/07/25 23:10:40;;;;;;;1.83;1.10;;;;;;;;;;20886558;28;20221;-83
2023/07/25 23:20:44;;;;;;;5.73;1.47;;;;;;;;;;20911444;28;20241;-81
2023/07/25 23:30:46;;;;;;;1.93;1.20;;;;;;;;;;20913226;28;20257;-83
2023/07/25 23:40:47;;;;;;;1.63;1.10;;;;;;;;;;20887023;28;20238;-82
2023/07/25 23:50:49;;;;;;;1.63;1.20;;;;;;;;;;20914411;28;20209;-83
